M/V Sirenuse — ZGAI6 — position and weather

sailwx.info

Track history (hours):
 
Tides and Currents Weather Stations Pressure Air Temp Water Temp Dewpoint Dewpoint Depression Visibility Wind Speed Wind Dir Waves Ship Positions

M/V Sirenuse

Last reported at 2014-Nov-23 12:33 UTC. Time now 2014-Nov-23 13:20 UTC.
Position N 26°08' W 080°07'.

Length 42 m; draft 2.2 m.

Type: Pleasure craft. MMSI: 319024900.

Date/timePositionNaut miles runAvg speedWind from/ knotsBaromVisibWave heightAir tempDewpointWater temp
2014-Nov-23 12:33N 26°08' W 080°07'0 0.0
2014-Nov-23 11:33N 26°08' W 080°07'0 0.0
2014-Nov-23 10:33N 26°08' W 080°07'0 0.0
2014-Nov-23 09:33N 26°08' W 080°07'0 0.0
2014-Nov-23 08:33N 26°08' W 080°07'0 0.0
2014-Nov-23 07:33N 26°08' W 080°07'0 0.0
2014-Nov-23 06:33N 26°08' W 080°07'0 0.0
2014-Nov-23 05:33N 26°08' W 080°07'0 0.0
2014-Nov-23 04:33N 26°08' W 080°07'0 0.0
2014-Nov-23 03:33N 26°08' W 080°07'0 0.0
2014-Nov-23 02:33N 26°08' W 080°07'0 0.0
2014-Nov-23 01:33N 26°08' W 080°07'0 0.0
2014-Nov-23 00:33N 26°08' W 080°07'0 0.0
2014-Nov-22 23:33N 26°08' W 080°07'0 0.0
2014-Nov-22 22:33N 26°08' W 080°07'0 0.0
2014-Nov-22 21:33N 26°08' W 080°07'0 0.0
2014-Nov-22 20:33N 26°08' W 080°07'0 0.0
2014-Nov-22 19:33N 26°08' W 080°07'0 0.0
2014-Nov-22 18:33N 26°08' W 080°07'0 0.0
2014-Nov-22 17:33N 26°08' W 080°07'0 0.0
2014-Nov-22 16:33N 26°08' W 080°07'0 0.0
2014-Nov-22 15:33N 26°08' W 080°07'0 0.0
2014-Nov-22 14:33N 26°08' W 080°07'0 0.4
2014-Nov-22 13:33N 26°08' W 080°07'6 6.0
2014-Nov-22 12:33N 26°14' W 080°06'5 4.9
2014-Nov-22 11:33N 26°19' W 080°05'4 4.3
2014-Nov-22 10:33N 26°23' W 080°04'23 3.8
2014-Nov-22 04:30N 26°46' W 080°02'7 7.0
2014-Nov-22 03:33N 26°53' W 080°02'1010.1
2014-Nov-22 02:33N 27°03' W 080°05'  
2014-Nov-17 07:07N 39°31' W 073°55'7310.6
2014-Nov-17 00:10N 40°23' W 072°47'1710.4
2014-Nov-16 22:31N 40°33' W 072°29'1010.4
2014-Nov-16 21:33N 40°41' W 072°20'1010.4
2014-Nov-16 20:33N 40°48' W 072°11'1010.4
2014-Nov-16 19:33N 40°56' W 072°01'1010.3
2014-Nov-16 18:33N 41°03' W 071°51'1010.3
2014-Nov-16 17:33N 41°10' W 071°42'1010.5
2014-Nov-16 16:33N 41°18' W 071°32'1010.2
2014-Nov-16 15:33N 41°22' W 071°20'1010.3
2014-Nov-16 14:33N 41°25' W 071°07'  
Track history (hours):
 
Tides and Currents Weather Stations Pressure Air Temp Water Temp Dewpoint Dewpoint Depression Visibility Wind Speed Wind Dir Waves Ship Positions

M/V Sirenuse

Last reported at 2014-Nov-23 12:33 UTC. Time now 2014-Nov-23 13:20 UTC.
Position N 26°08' W 080°07'.

Length 42 m; draft 2.2 m.

Type: Pleasure craft. MMSI: 319024900.

Date/timePositionNaut miles runAvg speedWind from/ knotsBaromVisibWave heightAir tempDewpointWater temp
2014-Nov-23 12:33N 26°08' W 080°07'0 0.0
2014-Nov-23 11:33N 26°08' W 080°07'0 0.0
2014-Nov-23 10:33N 26°08' W 080°07'0 0.0
2014-Nov-23 09:33N 26°08' W 080°07'0 0.0
2014-Nov-23 08:33N 26°08' W 080°07'0 0.0
2014-Nov-23 07:33N 26°08' W 080°07'0 0.0
2014-Nov-23 06:33N 26°08' W 080°07'0 0.0
2014-Nov-23 05:33N 26°08' W 080°07'0 0.0
2014-Nov-23 04:33N 26°08' W 080°07'0 0.0
2014-Nov-23 03:33N 26°08' W 080°07'0 0.0
2014-Nov-23 02:33N 26°08' W 080°07'0 0.0
2014-Nov-23 01:33N 26°08' W 080°07'0 0.0
2014-Nov-23 00:33N 26°08' W 080°07'0 0.0
2014-Nov-22 23:33N 26°08' W 080°07'0 0.0
2014-Nov-22 22:33N 26°08' W 080°07'0 0.0
2014-Nov-22 21:33N 26°08' W 080°07'0 0.0
2014-Nov-22 20:33N 26°08' W 080°07'0 0.0
2014-Nov-22 19:33N 26°08' W 080°07'0 0.0
2014-Nov-22 18:33N 26°08' W 080°07'0 0.0
2014-Nov-22 17:33N 26°08' W 080°07'0 0.0
2014-Nov-22 16:33N 26°08' W 080°07'0 0.0
2014-Nov-22 15:33N 26°08' W 080°07'0 0.0
2014-Nov-22 14:33N 26°08' W 080°07'0 0.4
2014-Nov-22 13:33N 26°08' W 080°07'6 6.0
2014-Nov-22 12:33N 26°14' W 080°06'5 4.9
2014-Nov-22 11:33N 26°19' W 080°05'4 4.3
2014-Nov-22 10:33N 26°23' W 080°04'23 3.8
2014-Nov-22 04:30N 26°46' W 080°02'7 7.0
2014-Nov-22 03:33N 26°53' W 080°02'1010.1
2014-Nov-22 02:33N 27°03' W 080°05'  
2014-Nov-17 07:07N 39°31' W 073°55'7310.6
2014-Nov-17 00:10N 40°23' W 072°47'1710.4
2014-Nov-16 22:31N 40°33' W 072°29'1010.4
2014-Nov-16 21:33N 40°41' W 072°20'1010.4
2014-Nov-16 20:33N 40°48' W 072°11'1010.4
2014-Nov-16 19:33N 40°56' W 072°01'1010.3
2014-Nov-16 18:33N 41°03' W 071°51'1010.3
2014-Nov-16 17:33N 41°10' W 071°42'1010.5
2014-Nov-16 16:33N 41°18' W 071°32'1010.2
2014-Nov-16 15:33N 41°22' W 071°20'1010.3
2014-Nov-16 14:33N 41°25' W 071°07'  

Dump ship's entire track history